»·PEaware :: N251CV KBOI-KCEC

N251CV :: KBOI-KCEC

FLIGHT INFORMATION

Flight Status: Arrived
Operator: Privately registered:
United States
More flights under this callsign
Pilot: Robert B. (18423)
Aircraft: Unknown
(SF50)
More flights by this aircraft type
Origin: KBOI Boise Air Terminal/Gowen
United States
Destination: KCEC McNamara
United States
More flights between these airports :: More routes between these airports
Route: +RENOL V113 REO V122 REFIX
File this flight plan on PilotEdge
Remarks: IFR
Altitude:
(Current/Filed)
16,000ft
Speed:
(Current/Filed)
300kts
Departed: 08-Mar-18 12:39 PM
Arrived: 08-Mar-18 02:38 PM
Distance/Time
Traveled:
369nm/1:59
Distance/Time
To Go:
Arrived

Flight Plot

Page will automatically refresh every two minutes.

Flight plan parsing failed; only flown route is shown


Map Options




Map Legend


Flown Route
Filed Route
Departure Airport
Arrival Airport
Navaid (VOR, NDB)
Fix

Horizontal Profiles

Position Reports

Time Latitude Longitude Heading Altitude Ground
Speed
08-Mar-18 12:18 43.561969 -116.205645 190 2867ft 0kts
08-Mar-18 12:19 43.561969 -116.205645 190 2867ft 0kts
08-Mar-18 12:20 43.561969 -116.205645 190 2867ft 0kts
08-Mar-18 12:21 43.561969 -116.205645 190 2867ft 0kts
08-Mar-18 12:22 43.561969 -116.205645 190 2867ft 0kts
08-Mar-18 12:23 43.561969 -116.205645 190 2867ft 0kts
08-Mar-18 12:24 43.561969 -116.205645 190 2867ft 0kts
08-Mar-18 12:25 43.561969 -116.205645 190 2867ft 0kts
08-Mar-18 12:26 43.561969 -116.205645 190 2867ft 0kts
08-Mar-18 12:27 43.561969 -116.205645 190 2867ft 0kts
08-Mar-18 12:28 43.561969 -116.205645 190 2867ft 0kts
08-Mar-18 12:29 43.561969 -116.205645 190 2867ft 0kts
08-Mar-18 12:30 43.561969 -116.205645 190 2867ft 0kts
08-Mar-18 12:31 43.561969 -116.205645 190 2867ft 0kts
08-Mar-18 12:32 43.561969 -116.205645 190 2867ft 0kts
08-Mar-18 12:33 43.561969 -116.205645 190 2867ft 0kts
08-Mar-18 12:34 43.561969 -116.205645 190 2867ft 0kts
08-Mar-18 12:35 43.561969 -116.205645 190 2867ft 0kts
08-Mar-18 12:36 43.561960 -116.205648 189 2867ft 0kts
08-Mar-18 12:37 43.561499 -116.207715 294 2863ft 14kts
08-Mar-18 12:38 43.563720 -116.214203 294 2857ft 22kts
08-Mar-18 12:39 43.566768 -116.223157 294 2846ft 26kts
08-Mar-18 12:40 43.569639 -116.231539 295 2833ft 22kts
08-Mar-18 12:41 43.570824 -116.235841 221 2826ft 0kts
08-Mar-18 12:42 43.570824 -116.235841 221 2826ft 0kts
08-Mar-18 12:43 43.570824 -116.235841 221 2826ft 0kts
08-Mar-18 12:44 43.570824 -116.235841 221 2826ft 0kts
08-Mar-18 12:45 43.569813 -116.235569 117 2828ft 0kts
08-Mar-18 12:46 43.562998 -116.214713 115 3469ft 116kts
08-Mar-18 12:47 43.550244 -116.169933 117 5761ft 136kts
08-Mar-18 12:48 43.535781 -116.124968 185 7933ft 128kts
08-Mar-18 12:49 43.520241 -116.168835 254 10180ft 139kts
08-Mar-18 12:50 43.506903 -116.216817 240 12290ft 139kts
08-Mar-18 12:51 43.484765 -116.264148 239 14121ft 153kts
08-Mar-18 12:52 43.461975 -116.312234 239 15940ft 157kts
08-Mar-18 12:53 43.432091 -116.375613 239 16000ft 230kts
08-Mar-18 12:54 43.394285 -116.455250 239 15988ft 252kts
08-Mar-18 12:55 43.357183 -116.533282 239 15986ft 244kts
08-Mar-18 12:56 43.319861 -116.606705 235 15986ft 242kts
08-Mar-18 12:57 43.279707 -116.677769 234 15996ft 241kts
08-Mar-18 12:58 43.238662 -116.750065 234 16004ft 242kts
08-Mar-18 12:59 43.197326 -116.822685 234 16012ft 242kts
08-Mar-18 13:00 43.155930 -116.895197 234 16017ft 241kts
08-Mar-18 13:01 43.114444 -116.967711 234 16000ft 241kts
08-Mar-18 13:02 43.073421 -117.039237 234 15983ft 239kts
08-Mar-18 13:03 43.032473 -117.110458 234 15965ft 237kts
08-Mar-18 13:04 42.991996 -117.180698 234 15960ft 235kts
08-Mar-18 13:05 42.951607 -117.250607 234 15959ft 234kts
08-Mar-18 13:06 42.911489 -117.319888 233 15958ft 233kts
08-Mar-18 13:07 42.871814 -117.388243 233 15964ft 233kts
08-Mar-18 13:08 42.831481 -117.457555 233 15963ft 234kts
08-Mar-18 13:09 42.791463 -117.526186 233 15999ft 233kts
08-Mar-18 13:10 42.751027 -117.595367 233 15998ft 233kts
08-Mar-18 13:11 42.710663 -117.663600 231 16000ft 234kts
08-Mar-18 13:12 42.670210 -117.732492 232 16005ft 234kts
08-Mar-18 13:13 42.629857 -117.801452 233 16005ft 235kts
08-Mar-18 13:14 42.592234 -117.872965 259 15993ft 238kts
08-Mar-18 13:15 42.588260 -117.963450 262 16003ft 239kts
08-Mar-18 13:16 42.585707 -118.053321 263 16002ft 239kts
08-Mar-18 13:17 42.583220 -118.143239 263 16001ft 239kts
08-Mar-18 13:18 42.580659 -118.233745 263 16001ft 239kts
08-Mar-18 13:19 42.578042 -118.323732 263 16000ft 239kts
08-Mar-18 13:20 42.575355 -118.413710 263 15972ft 239kts
08-Mar-18 13:21 42.572656 -118.501815 263 15971ft 238kts
08-Mar-18 13:22 42.569866 -118.590611 263 15970ft 238kts
08-Mar-18 13:23 42.567029 -118.678553 262 15978ft 238kts
08-Mar-18 13:24 42.564050 -118.768907 262 15969ft 239kts
08-Mar-18 13:25 42.561011 -118.859593 262 15867ft 241kts
08-Mar-18 13:26 42.557899 -118.949902 261 15866ft 237kts
08-Mar-18 13:27 42.554773 -119.038407 261 15865ft 234kts
08-Mar-18 13:28 42.551569 -119.126635 261 15864ft 232kts
08-Mar-18 13:29 42.548385 -119.213031 261 15863ft 231kts
08-Mar-18 13:30 42.545101 -119.300208 261 15862ft 230kts
08-Mar-18 13:31 42.541797 -119.386438 261 15861ft 230kts
08-Mar-18 13:32 42.538410 -119.472872 261 15861ft 229kts
08-Mar-18 13:33 42.534973 -119.559014 261 15875ft 229kts
08-Mar-18 13:34 42.531487 -119.644878 261 15922ft 228kts
08-Mar-18 13:35 42.528062 -119.727623 260 15978ft 228kts
08-Mar-18 13:36 42.524457 -119.813255 260 16003ft 229kts
08-Mar-18 13:37 42.520802 -119.898469 260 16002ft 230kts
08-Mar-18 13:38 42.517054 -119.984456 260 16001ft 230kts
08-Mar-18 13:39 42.513331 -120.068329 260 15999ft 230kts
08-Mar-18 13:40 42.509440 -120.154680 260 15999ft 230kts
08-Mar-18 13:41 42.505487 -120.240940 260 15998ft 229kts
08-Mar-18 13:42 42.501453 -120.326365 260 15997ft 229kts
08-Mar-18 13:43 42.497506 -120.410799 260 15996ft 229kts
08-Mar-18 13:44 42.493344 -120.497271 260 15995ft 229kts
08-Mar-18 13:45 42.473749 -120.576779 247 15994ft 224kts
08-Mar-18 13:46 42.452514 -120.655182 246 15997ft 223kts
08-Mar-18 13:47 42.432040 -120.730081 247 16003ft 225kts
08-Mar-18 13:48 42.410365 -120.809057 247 16002ft 225kts
08-Mar-18 13:49 42.388413 -120.888776 247 16001ft 225kts
08-Mar-18 13:50 42.366503 -120.968088 247 15999ft 225kts
08-Mar-18 13:51 42.344751 -121.046692 247 15973ft 227kts
08-Mar-18 13:52 42.322579 -121.126359 246 15945ft 230kts
08-Mar-18 13:53 42.300134 -121.206834 246 15918ft 234kts
08-Mar-18 13:54 42.277364 -121.288199 246 15915ft 235kts
08-Mar-18 13:55 42.254667 -121.369068 246 15914ft 235kts
08-Mar-18 13:56 42.231407 -121.451670 247 15913ft 235kts
08-Mar-18 13:57 42.208427 -121.533007 246 15913ft 235kts
08-Mar-18 13:58 42.189030 -121.601444 246 15912ft 235kts
08-Mar-18 13:59 42.162489 -121.694797 246 15919ft 235kts
08-Mar-18 14:00 42.162381 -121.783010 273 15919ft 248kts
08-Mar-18 14:01 42.176215 -121.873716 274 15918ft 249kts
08-Mar-18 14:02 42.190445 -121.964762 274 15922ft 249kts
08-Mar-18 14:03 42.201998 -122.039210 274 16011ft 247kts
08-Mar-18 14:04 42.216076 -122.130167 274 16011ft 248kts
08-Mar-18 14:05 42.229988 -122.220563 274 16014ft 248kts
08-Mar-18 14:06 42.249852 -122.309116 288 16023ft 258kts
08-Mar-18 14:07 42.282153 -122.394137 288 16019ft 258kts
08-Mar-18 14:08 42.315063 -122.480008 288 16000ft 259kts
08-Mar-18 14:09 42.347970 -122.566060 288 15985ft 259kts
08-Mar-18 14:10 42.379711 -122.649311 288 15977ft 258kts
08-Mar-18 14:11 42.411869 -122.733926 287 15985ft 259kts
08-Mar-18 14:12 42.444678 -122.820505 287 15985ft 259kts
08-Mar-18 14:13 42.472978 -122.907746 257 15971ft 240kts
08-Mar-18 14:14 42.441864 -122.984534 236 15983ft 233kts
08-Mar-18 14:15 42.405693 -123.055530 234 15982ft 230kts
08-Mar-18 14:16 42.368992 -123.125834 234 15981ft 227kts
08-Mar-18 14:17 42.332877 -123.195191 235 15980ft 226kts
08-Mar-18 14:18 42.298129 -123.262801 234 15979ft 225kts
08-Mar-18 14:19 42.262143 -123.331653 234 15978ft 224kts
08-Mar-18 14:20 42.228969 -123.395241 234 14503ft 201kts
08-Mar-18 14:21 42.198103 -123.454094 233 11987ft 173kts
08-Mar-18 14:22 42.172288 -123.503171 233 11977ft 161kts
08-Mar-18 14:23 42.146621 -123.551903 233 11976ft 162kts
08-Mar-18 14:24 42.120650 -123.601188 234 11975ft 162kts
08-Mar-18 14:25 42.094840 -123.650004 233 11999ft 161kts
08-Mar-18 14:26 42.068973 -123.699012 233 12038ft 162kts
08-Mar-18 14:27 42.042851 -123.748220 233 12073ft 162kts
08-Mar-18 14:28 42.017029 -123.796936 233 12098ft 162kts
08-Mar-18 14:29 41.998168 -123.849743 240 11546ft 156kts
08-Mar-18 14:30 41.980275 -123.902443 238 9547ft 164kts
08-Mar-18 14:31 41.961326 -123.958049 237 7655ft 167kts
08-Mar-18 14:32 41.943001 -124.013132 238 7090ft 168kts
08-Mar-18 14:33 41.922907 -124.072341 238 7089ft 180kts
08-Mar-18 14:34 41.902070 -124.133373 238 6769ft 176kts
08-Mar-18 14:35 41.882980 -124.190258 238 5976ft 150kts
08-Mar-18 14:36 41.868987 -124.236735 236 5979ft 125kts
08-Mar-18 14:43 41.814023 -124.281313 138 868ft 99kts
08-Mar-18 14:44 41.794699 -124.254645 139 365ft 98kts
08-Mar-18 14:45 41.778382 -124.232059 129 54ft 30kts
08-Mar-18 14:46 41.775447 -124.229340 284 53ft 1kts
08-Mar-18 14:47 41.775524 -124.229643 290 54ft 8kts
08-Mar-18 14:48 41.778163 -124.234920 201 54ft 11kts
08-Mar-18 14:49 41.777886 -124.234934 177 54ft 0kts
08-Mar-18 14:50 41.777886 -124.234934 177 54ft 0kts
08-Mar-18 14:51 41.777886 -124.234934 177 54ft 0kts
08-Mar-18 14:52 41.777886 -124.234934 177 54ft 0kts
08-Mar-18 14:53 41.777886 -124.234934 177 54ft 0kts
08-Mar-18 14:54 41.777886 -124.234934 177 54ft 0kts
08-Mar-18 14:55 41.777886 -124.234934 177 54ft 0kts
08-Mar-18 14:56 41.777886 -124.234934 177 54ft 0kts
08-Mar-18 14:57 41.777886 -124.234934 177 54ft 0kts
08-Mar-18 14:58 41.777886 -124.234934 177 54ft 0kts
08-Mar-18 14:59 41.777886 -124.234934 177 54ft 0kts

Navigation Log

Ident Type
Flight plan parsing failed, navigation log unavailable